Time;durP1;ratioP1;P1;durP2;ratioP2;P2;SDS_P1;SDS_P2;PMS_P1;PMS_P2;Temp;Humidity;BMP_temperature;BMP_pressure;BME280_temperature;BME280_humidity;BME280_pressure;Samples;Min_cycle;Max_cycle;Signal;HPM_P1;HPM_P2
2022/05/17 00:01:22;;;;;;;2.67;1.50;;;;;;;;;;5056689;28;20039;-77
2022/05/17 00:03:48;;;;;;;15.45;1.92;;;;;;;;;;5056570;28;20489;-77
2022/05/17 00:06:13;;;;;;;3.45;1.27;;;;;;;;;;5073276;28;20052;-77
2022/05/17 00:08:39;;;;;;;3.88;1.40;;;;;;;;;;5039825;28;20035;-78
2022/05/17 00:11:06;;;;;;;3.65;1.77;;;;;;;;;;5074649;28;20104;-78
2022/05/17 00:13:32;;;;;;;3.15;1.20;;;;;;;;;;5057221;28;20028;-77
2022/05/17 00:15:59;;;;;;;11.25;1.50;;;;;;;;;;5056744;28;20364;-77
2022/05/17 00:18:25;;;;;;;2.05;1.20;;;;;;;;;;5056767;28;20526;-77
2022/05/17 00:20:50;;;;;;;2.45;1.35;;;;;;;;;;5073271;28;20056;-78
2022/05/17 00:23:16;;;;;;;1.98;1.30;;;;;;;;;;5073403;28;20052;-77
2022/05/17 00:25:42;;;;;;;2.60;1.27;;;;;;;;;;5073539;28;20029;-79
2022/05/17 00:28:08;;;;;;;2.95;1.50;;;;;;;;;;5056758;28;20044;-77
2022/05/17 00:30:34;;;;;;;2.05;1.42;;;;;;;;;;5073234;28;20031;-77
2022/05/17 00:32:59;;;;;;;2.60;1.38;;;;;;;;;;5055978;28;20540;-77
2022/05/17 00:35:25;;;;;;;2.78;1.60;;;;;;;;;;5055963;28;20060;-77
2022/05/17 00:37:50;;;;;;;4.18;1.45;;;;;;;;;;5056272;28;20111;-77
2022/05/17 00:40:16;;;;;;;4.13;1.33;;;;;;;;;;5056398;28;20036;-78
2022/05/17 00:42:42;;;;;;;2.78;1.85;;;;;;;;;;5072961;28;20032;-77
2022/05/17 00:45:09;;;;;;;3.95;1.65;;;;;;;;;;5072444;28;20028;-78
2022/05/17 00:47:56;;;;;;;3.58;2.08;;;;;;;;;;5072824;28;20044;-78
2022/05/17 00:50:43;;;;;;;2.05;1.27;;;;;;;;;;5072995;28;20393;-77
2022/05/17 00:53:21;;;;;;;6.85;1.73;;;;;;;;;;5055873;28;20090;-78
2022/05/17 00:55:51;;;;;;;4.80;1.75;;;;;;;;;;5072753;28;20390;-78
2022/05/17 00:58:21;;;;;;;2.17;1.30;;;;;;;;;;5072528;28;20035;-78
2022/05/17 01:01:02;;;;;;;4.40;2.17;;;;;;;;;;5072683;28;20056;-78
2022/05/17 01:03:30;;;;;;;2.85;1.48;;;;;;;;;;5072531;28;20321;-78
2022/05/17 01:05:56;;;;;;;4.03;2.08;;;;;;;;;;5072389;28;20042;-78
2022/05/17 01:08:22;;;;;;;3.83;1.40;;;;;;;;;;5055602;28;20029;-77
2022/05/17 01:10:48;;;;;;;3.80;1.77;;;;;;;;;;5039011;28;20029;-77
2022/05/17 01:15:57;;;;;;;;;;;;;;;;;;5072944;28;20108;-77
2022/05/17 01:18:23;;;;;;;4.37;1.50;;;;;;;;;;5072339;28;19940;-77
2022/05/17 01:20:49;;;;;;;2.53;1.50;;;;;;;;;;5055417;28;20031;-77
2022/05/17 01:23:14;;;;;;;1.88;1.60;;;;;;;;;;5055453;28;20024;-78
2022/05/17 01:25:44;;;;;;;3.05;1.30;;;;;;;;;;5073304;28;20047;-77
2022/05/17 01:28:20;;;;;;;4.63;1.52;;;;;;;;;;5039377;28;20032;-78
2022/05/17 01:30:46;;;;;;;3.97;1.70;;;;;;;;;;5055403;28;20031;-79
2022/05/17 01:33:14;;;;;;;3.13;1.95;;;;;;;;;;5072054;28;20033;-79
2022/05/17 01:35:40;;;;;;;2.53;1.52;;;;;;;;;;5071888;28;20013;-78
2022/05/17 01:38:05;;;;;;;4.25;1.88;;;;;;;;;;5072113;28;20037;-78
2022/05/17 01:40:31;;;;;;;2.45;1.42;;;;;;;;;;5055083;28;20107;-78
2022/05/17 01:42:56;;;;;;;3.60;1.48;;;;;;;;;;5054982;28;20105;-78
2022/05/17 01:45:22;;;;;;;3.30;1.52;;;;;;;;;;5070841;28;20035;-78
2022/05/17 01:47:47;;;;;;;3.28;1.50;;;;;;;;;;5071834;28;20338;-77
2022/05/17 01:50:13;;;;;;;5.45;1.98;;;;;;;;;;5054776;28;20039;-77
2022/05/17 01:52:38;;;;;;;5.32;1.67;;;;;;;;;;5071649;28;20052;-77
2022/05/17 01:55:04;;;;;;;2.53;1.33;;;;;;;;;;5071295;28;20024;-77
2022/05/17 01:57:29;;;;;;;3.95;2.00;;;;;;;;;;5070969;28;20032;-77
2022/05/17 01:59:55;;;;;;;2.85;1.55;;;;;;;;;;5067761;28;20517;-77
2022/05/17 02:02:20;;;;;;;3.78;1.50;;;;;;;;;;5051124;28;20475;-77
2022/05/17 02:04:45;;;;;;;2.90;1.60;;;;;;;;;;5067731;28;20033;-77
2022/05/17 02:07:11;;;;;;;2.45;1.40;;;;;;;;;;5067755;28;20059;-77
2022/05/17 02:09:36;;;;;;;4.35;1.40;;;;;;;;;;5067666;28;20484;-77
2022/05/17 02:12:02;;;;;;;3.70;1.55;;;;;;;;;;5067911;28;20025;-79
2022/05/17 02:14:28;;;;;;;5.95;1.52;;;;;;;;;;5067855;28;20374;-77
2022/05/17 02:16:53;;;;;;;2.33;1.40;;;;;;;;;;5050694;28;20039;-77
2022/05/17 02:19:20;;;;;;;2.97;1.67;;;;;;;;;;5050796;28;20036;-76
2022/05/17 02:21:47;;;;;;;2.78;1.50;;;;;;;;;;5051235;28;20444;-77
2022/05/17 02:24:12;;;;;;;4.25;1.63;;;;;;;;;;5050744;28;20036;-77
2022/05/17 02:26:38;;;;;;;5.18;1.60;;;;;;;;;;5050907;28;20029;-77
2022/05/17 02:29:03;;;;;;;3.92;1.50;;;;;;;;;;5052207;28;20020;-77
2022/05/17 02:31:29;;;;;;;1.65;1.35;;;;;;;;;;5050721;28;20116;-77
2022/05/17 02:33:55;;;;;;;1.92;1.15;;;;;;;;;;5067377;28;20056;-76
2022/05/17 02:36:21;;;;;;;4.05;1.20;;;;;;;;;;5067198;28;20525;-77
2022/05/17 02:38:46;;;;;;;1.95;1.33;;;;;;;;;;5050578;28;20483;-77
2022/05/17 02:41:13;;;;;;;3.13;1.20;;;;;;;;;;5050711;28;20144;-77
2022/05/17 02:43:38;;;;;;;2.38;1.40;;;;;;;;;;5067092;28;20103;-77
2022/05/17 02:46:04;;;;;;;1.83;1.33;;;;;;;;;;5050331;28;20433;-78
2022/05/17 02:48:30;;;;;;;4.88;1.98;;;;;;;;;;5067177;28;20036;-77
2022/05/17 02:50:55;;;;;;;2.92;1.50;;;;;;;;;;5067114;28;20033;-77
2022/05/17 02:53:21;;;;;;;6.65;1.80;;;;;;;;;;5033534;28;20028;-77
2022/05/17 02:55:47;;;;;;;3.55;1.50;;;;;;;;;;5050177;28;20087;-77
2022/05/17 02:58:12;;;;;;;3.60;1.80;;;;;;;;;;5072623;28;20021;-77
2022/05/17 03:00:38;;;;;;;3.28;1.50;;;;;;;;;;5076936;28;20052;-77
2022/05/17 03:03:04;;;;;;;3.22;1.52;;;;;;;;;;5060086;28;20024;-77
2022/05/17 03:05:29;;;;;;;4.05;1.75;;;;;;;;;;5078484;28;20029;-78
2022/05/17 03:07:55;;;;;;;1.88;1.35;;;;;;;;;;5078270;28;20047;-78
2022/05/17 03:10:21;;;;;;;3.20;1.58;;;;;;;;;;5043621;28;20105;-78
2022/05/17 03:12:47;;;;;;;2.10;1.40;;;;;;;;;;5076985;28;20021;-78
2022/05/17 03:15:17;;;;;;;1.77;1.30;;;;;;;;;;5077329;28;20078;-78
2022/05/17 03:17:43;;;;;;;3.83;1.60;;;;;;;;;;5077424;28;20124;-78
2022/05/17 03:20:09;;;;;;;3.03;1.65;;;;;;;;;;5060245;28;20059;-78
2022/05/17 03:22:34;;;;;;;2.28;1.30;;;;;;;;;;5060281;28;20028;-77
2022/05/17 03:25:00;;;;;;;1.55;1.40;;;;;;;;;;5060400;28;20484;-77
2022/05/17 03:27:25;;;;;;;2.85;1.55;;;;;;;;;;5077250;28;20127;-78
2022/05/17 03:29:51;;;;;;;2.60;1.50;;;;;;;;;;5076270;28;20126;-78
2022/05/17 03:32:16;;;;;;;5.05;1.73;;;;;;;;;;5059567;28;20033;-78
2022/05/17 03:34:41;;;;;;;5.32;1.70;;;;;;;;;;5076827;28;20048;-77
2022/05/17 03:37:07;;;;;;;4.90;1.70;;;;;;;;;;5077964;28;20131;-77
2022/05/17 03:39:33;;;;;;;4.80;1.83;;;;;;;;;;5060264;28;20035;-77
2022/05/17 03:41:58;;;;;;;2.28;1.40;;;;;;;;;;5077935;28;20383;-77
2022/05/17 03:44:24;;;;;;;2.45;1.67;;;;;;;;;;5060058;28;20033;-78
2022/05/17 03:46:49;;;;;;;3.28;1.70;;;;;;;;;;5059783;28;20042;-77
2022/05/17 03:49:14;;;;;;;2.63;1.33;;;;;;;;;;5043123;28;20113;-77
2022/05/17 03:51:40;;;;;;;6.30;1.38;;;;;;;;;;5059818;28;20039;-79
2022/05/17 03:54:07;;;;;;;2.70;1.60;;;;;;;;;;5076526;28;20600;-78
2022/05/17 03:56:32;;;;;;;3.10;1.55;;;;;;;;;;5059412;28;20052;-77
2022/05/17 03:58:57;;;;;;;2.58;1.52;;;;;;;;;;5059610;28;20133;-78
2022/05/17 04:01:23;;;;;;;2.05;1.33;;;;;;;;;;5059462;28;20039;-78
2022/05/17 04:03:48;;;;;;;4.25;1.63;;;;;;;;;;5059596;28;20350;-77
2022/05/17 04:06:13;;;;;;;4.57;2.05;;;;;;;;;;5059539;28;20044;-77
2022/05/17 04:08:40;;;;;;;2.83;1.55;;;;;;;;;;5074133;28;20036;-77
2022/05/17 04:11:06;;;;;;;2.58;1.58;;;;;;;;;;5074691;28;20059;-78
2022/05/17 04:13:32;;;;;;;2.88;1.70;;;;;;;;;;5073208;28;20032;-78
2022/05/17 04:15:58;;;;;;;2.83;1.60;;;;;;;;;;5074699;28;20516;-78
2022/05/17 04:18:23;;;;;;;2.40;1.73;;;;;;;;;;5074952;28;20060;-78
2022/05/17 04:20:49;;;;;;;4.63;1.80;;;;;;;;;;5056188;28;20100;-79
2022/05/17 04:23:14;;;;;;;4.07;2.17;;;;;;;;;;5056924;28;20036;-78
2022/05/17 04:25:39;;;;;;;4.97;1.95;;;;;;;;;;5055940;28;20127;-79
2022/05/17 04:28:06;;;;;;;5.40;2.08;;;;;;;;;;5056187;28;20130;-78
2022/05/17 04:30:31;;;;;;;6.38;2.58;;;;;;;;;;5039332;28;20036;-78
2022/05/17 04:33:00;;;;;;;6.15;1.80;;;;;;;;;;5056189;28;20494;-79
2022/05/17 04:35:25;;;;;;;4.82;1.70;;;;;;;;;;5072932;28;20097;-79
2022/05/17 04:37:51;;;;;;;5.05;1.83;;;;;;;;;;5039998;28;20024;-79
2022/05/17 04:40:17;;;;;;;9.70;2.15;;;;;;;;;;5056189;28;20447;-79
2022/05/17 04:42:43;;;;;;;7.47;1.88;;;;;;;;;;5074279;28;20524;-78
2022/05/17 04:45:11;;;;;;;9.38;2.35;;;;;;;;;;5072730;28;20163;-83
2022/05/17 04:47:40;;;;;;;5.65;2.03;;;;;;;;;;5072839;28;20043;-85
2022/05/17 04:50:06;;;;;;;4.00;2.00;;;;;;;;;;5056077;28;20113;-81
2022/05/17 04:52:31;;;;;;;4.43;2.10;;;;;;;;;;5072509;28;20100;-80
2022/05/17 04:54:57;;;;;;;4.78;1.90;;;;;;;;;;5072537;28;20112;-80
2022/05/17 04:57:22;;;;;;;5.95;2.13;;;;;;;;;;5039461;28;20028;-81
2022/05/17 04:59:47;;;;;;;5.40;2.42;;;;;;;;;;5039267;28;20080;-81
2022/05/17 05:02:13;;;;;;;7.60;2.63;;;;;;;;;;5039236;28;20468;-81
2022/05/17 05:04:38;;;;;;;8.05;3.20;;;;;;;;;;5073948;28;20389;-81
2022/05/17 05:07:05;;;;;;;10.25;3.35;;;;;;;;;;5072627;28;20043;-80
2022/05/17 05:09:31;;;;;;;8.88;2.53;;;;;;;;;;5072385;28;20028;-81
2022/05/17 05:11:57;;;;;;;7.78;2.42;;;;;;;;;;5056086;28;20419;-81
2022/05/17 05:14:22;;;;;;;6.93;2.35;;;;;;;;;;5072300;28;20052;-82
2022/05/17 05:16:47;;;;;;;9.02;2.88;;;;;;;;;;5072310;28;20044;-81
2022/05/17 05:19:13;;;;;;;6.57;2.55;;;;;;;;;;5072893;28;20112;-79
2022/05/17 05:21:38;;;;;;;4.82;2.33;;;;;;;;;;5073310;28;20044;-79
2022/05/17 05:24:06;;;;;;;6.30;2.45;;;;;;;;;;5056000;28;20028;-79
2022/05/17 05:26:33;;;;;;;7.22;2.33;;;;;;;;;;5072416;28;20157;-79
2022/05/17 05:28:58;;;;;;;5.22;2.30;;;;;;;;;;5074113;28;20023;-78
2022/05/17 05:31:23;;;;;;;5.68;2.40;;;;;;;;;;5072841;28;20024;-78
2022/05/17 05:33:49;;;;;;;6.78;2.28;;;;;;;;;;5072824;28;20118;-78
2022/05/17 05:36:14;;;;;;;4.30;2.30;;;;;;;;;;5074074;28;20107;-78
2022/05/17 05:38:41;;;;;;;3.85;1.98;;;;;;;;;;5072875;28;20054;-78
2022/05/17 05:41:09;;;;;;;4.88;2.40;;;;;;;;;;5056483;28;20035;-80
2022/05/17 05:43:35;;;;;;;4.28;2.00;;;;;;;;;;5073936;28;20035;-79
2022/05/17 05:46:00;;;;;;;5.85;2.72;;;;;;;;;;5072225;28;20025;-80
2022/05/17 05:48:25;;;;;;;5.07;1.95;;;;;;;;;;5056025;28;20431;-79
2022/05/17 05:50:52;;;;;;;5.18;1.65;;;;;;;;;;5073341;28;20449;-79
2022/05/17 05:53:18;;;;;;;3.60;2.17;;;;;;;;;;5071961;28;20021;-78
2022/05/17 05:55:44;;;;;;;9.43;2.00;;;;;;;;;;5071931;28;20024;-78
2022/05/17 05:58:10;;;;;;;4.90;1.98;;;;;;;;;;5054943;28;20107;-78
2022/05/17 06:00:36;;;;;;;2.60;1.70;;;;;;;;;;5037475;28;20220;-79
2022/05/17 06:03:03;;;;;;;3.42;1.88;;;;;;;;;;5070273;28;20105;-78
2022/05/17 06:05:30;;;;;;;4.80;1.90;;;;;;;;;;5053473;28;20040;-77
2022/05/17 06:07:55;;;;;;;2.58;1.63;;;;;;;;;;5053669;28;20031;-78
2022/05/17 06:10:21;;;;;;;2.55;1.60;;;;;;;;;;5070197;28;20025;-78
2022/05/17 06:12:47;;;;;;;3.60;1.95;;;;;;;;;;5053601;28;20026;-79
2022/05/17 06:15:13;;;;;;;4.10;1.98;;;;;;;;;;5053684;28;20123;-79
2022/05/17 06:17:39;;;;;;;3.22;1.73;;;;;;;;;;5053592;28;20037;-80
2022/05/17 06:20:06;;;;;;;4.30;1.52;;;;;;;;;;5071716;28;20451;-77
2022/05/17 06:22:31;;;;;;;2.92;1.83;;;;;;;;;;5053703;28;20078;-79
2022/05/17 06:24:56;;;;;;;4.60;1.42;;;;;;;;;;5070429;28;20033;-80
2022/05/17 06:27:22;;;;;;;6.30;2.10;;;;;;;;;;5054193;28;20029;-80
2022/05/17 06:29:47;;;;;;;3.03;1.60;;;;;;;;;;5071311;28;20029;-80
2022/05/17 06:32:15;;;;;;;3.55;1.60;;;;;;;;;;5053732;28;20393;-79
2022/05/17 06:34:40;;;;;;;4.18;1.63;;;;;;;;;;5054106;28;20031;-80
2022/05/17 06:37:07;;;;;;;6.13;1.70;;;;;;;;;;5054018;28;20028;-80
2022/05/17 06:39:33;;;;;;;4.97;1.80;;;;;;;;;;5054200;28;20039;-78
2022/05/17 06:41:59;;;;;;;3.25;1.63;;;;;;;;;;5054437;28;20028;-79
2022/05/17 06:44:24;;;;;;;11.50;2.08;;;;;;;;;;5072862;28;20455;-80
2022/05/17 06:46:50;;;;;;;4.40;1.60;;;;;;;;;;5054328;28;20060;-79
2022/05/17 06:49:16;;;;;;;5.78;1.90;;;;;;;;;;5038218;28;20478;-79
2022/05/17 06:51:42;;;;;;;3.47;1.50;;;;;;;;;;5055463;28;20039;-80
2022/05/17 06:54:07;;;;;;;3.97;2.00;;;;;;;;;;5055077;28;20033;-80
2022/05/17 06:56:34;;;;;;;7.28;1.90;;;;;;;;;;5070772;28;20382;-79
2022/05/17 06:58:59;;;;;;;17.35;2.20;;;;;;;;;;5037633;28;20044;-80
2022/05/17 07:01:25;;;;;;;14.73;3.17;;;;;;;;;;5072416;28;20105;-78
2022/05/17 07:03:51;;;;;;;6.63;2.22;;;;;;;;;;5054181;28;20098;-80
2022/05/17 07:06:16;;;;;;;7.53;2.00;;;;;;;;;;5054603;28;20382;-81
2022/05/17 07:08:42;;;;;;;9.75;2.95;;;;;;;;;;5037517;28;20028;-80
2022/05/17 07:13:52;;;;;;;;;;;;;;;;;;5071856;28;20101;-80
2022/05/17 07:16:21;;;;;;;5.63;2.00;;;;;;;;;;5055237;28;20014;-80
2022/05/17 07:18:47;;;;;;;6.55;1.98;;;;;;;;;;5055635;28;20033;-79
2022/05/17 07:21:16;;;;;;;7.25;1.75;;;;;;;;;;5072581;28;20494;-79
2022/05/17 07:23:42;;;;;;;2.67;1.55;;;;;;;;;;5038492;28;20029;-79
2022/05/17 07:26:09;;;;;;;5.05;1.77;;;;;;;;;;5054451;28;20034;-80
2022/05/17 07:28:43;;;;;;;6.78;1.90;;;;;;;;;;5055931;28;20028;-79
2022/05/17 07:31:09;;;;;;;6.03;1.75;;;;;;;;;;5054611;28;20036;-79
2022/05/17 07:33:35;;;;;;;2.80;1.30;;;;;;;;;;5067699;28;20024;-78
2022/05/17 07:36:01;;;;;;;3.40;1.50;;;;;;;;;;5053490;28;20111;-78
2022/05/17 07:38:26;;;;;;;3.78;1.85;;;;;;;;;;5054537;28;20374;-78
2022/05/17 07:40:53;;;;;;;3.00;1.45;;;;;;;;;;5070095;28;20024;-78
2022/05/17 07:43:19;;;;;;;3.63;1.77;;;;;;;;;;5071420;28;20047;-79
2022/05/17 07:45:45;;;;;;;4.70;1.30;;;;;;;;;;5073774;28;20447;-79
2022/05/17 07:48:11;;;;;;;2.42;1.30;;;;;;;;;;5057625;28;20040;-79
2022/05/17 07:50:36;;;;;;;4.80;1.85;;;;;;;;;;5057338;28;20454;-78
2022/05/17 07:53:10;;;;;;;4.63;1.58;;;;;;;;;;5073891;28;20116;-79
2022/05/17 07:55:36;;;;;;;3.85;1.67;;;;;;;;;;5056987;28;20059;-79
2022/05/17 07:58:03;;;;;;;2.78;1.20;;;;;;;;;;5056897;28;20097;-79
2022/05/17 08:00:28;;;;;;;6.05;1.55;;;;;;;;;;5053444;28;20049;-77
2022/05/17 08:02:56;;;;;;;2.90;1.25;;;;;;;;;;5070110;28;20049;-79
2022/05/17 08:05:22;;;;;;;3.67;1.73;;;;;;;;;;5070265;28;20044;-78
2022/05/17 08:07:48;;;;;;;3.55;1.30;;;;;;;;;;5036670;28;20128;-78
2022/05/17 08:10:13;;;;;;;4.38;1.20;;;;;;;;;;5036850;28;20032;-77
2022/05/17 08:12:39;;;;;;;19.83;2.42;;;;;;;;;;5053548;28;20029;-78
2022/05/17 08:15:05;;;;;;;5.78;1.75;;;;;;;;;;5054811;28;20498;-78
2022/05/17 08:17:30;;;;;;;2.20;1.30;;;;;;;;;;5053904;28;20037;-78
2022/05/17 08:19:56;;;;;;;1.73;1.10;;;;;;;;;;5053428;28;20506;-79
2022/05/17 08:22:21;;;;;;;2.40;1.10;;;;;;;;;;5053635;28;20029;-80
2022/05/17 08:27:36;;;;;;;;;;;;;;;;;;5068080;28;20159;-78
2022/05/17 08:30:08;;;;;;;6.43;1.48;;;;;;;;;;5053308;28;20256;-79
2022/05/17 08:35:18;;;;;;;1.92;1.30;;;;;;;;;;5053656;28;20040;-78
2022/05/17 08:37:44;;;;;;;3.40;1.42;;;;;;;;;;5053264;28;20025;-78
2022/05/17 08:40:16;;;;;;;3.05;1.30;;;;;;;;;;5036810;28;20129;-78
2022/05/17 08:43:30;;;;;;;1.80;1.00;;;;;;;;;;5069810;28;20021;-78
2022/05/17 08:46:01;;;;;;;3.10;1.30;;;;;;;;;;5050242;28;20124;-78
2022/05/17 08:48:32;;;;;;;2.22;1.10;;;;;;;;;;5069343;28;20059;-78
2022/05/17 08:50:58;;;;;;;4.60;1.73;;;;;;;;;;5052588;28;20044;-78
2022/05/17 08:53:23;;;;;;;5.47;1.67;;;;;;;;;;5069410;28;20055;-79
2022/05/17 08:55:50;;;;;;;1.90;1.02;;;;;;;;;;5068775;28;20029;-80
2022/05/17 08:58:30;;;;;;;1.70;1.30;;;;;;;;;;5036105;28;20035;-79
2022/05/17 09:01:02;;;;;;;3.70;1.20;;;;;;;;;;5068955;28;20384;-79
2022/05/17 09:04:05;;;;;;;2.15;1.33;;;;;;;;;;5069430;28;20020;-79
2022/05/17 09:06:52;;;;;;;3.35;1.40;;;;;;;;;;5053585;28;20036;-79
2022/05/17 09:09:56;;;;;;;4.50;1.50;;;;;;;;;;5051963;28;20028;-78
2022/05/17 09:12:25;;;;;;;;;;;;;;;;;;5045230;28;20075;-78
2022/05/17 09:14:51;;;;;;;3.00;1.58;;;;;;;;;;5051967;28;20320;-78
2022/05/17 09:17:24;;;;;;;4.90;1.38;;;;;;;;;;5051837;28;20053;-78
2022/05/17 09:19:53;;;;;;;2.47;1.37;;;;;;;;;;5035899;28;20029;-78
2022/05/17 09:22:20;;;;;;;4.70;1.38;;;;;;;;;;5052283;28;20154;-78
2022/05/17 09:24:50;;;;;;;2.47;1.30;;;;;;;;;;5051402;28;20036;-78
2022/05/17 09:27:27;;;;;;;2.25;1.23;;;;;;;;;;5051417;28;20047;-78
2022/05/17 09:30:03;;;;;;;4.38;1.35;;;;;;;;;;5051188;28;20028;-78
2022/05/17 09:32:32;;;;;;;4.43;1.33;;;;;;;;;;5051512;28;20025;-78
2022/05/17 09:35:04;;;;;;;3.97;1.60;;;;;;;;;;5068731;28;20045;-78
2022/05/17 09:37:33;;;;;;;3.88;1.27;;;;;;;;;;5051880;28;20025;-77
2022/05/17 09:39:59;;;;;;;1.58;0.95;;;;;;;;;;5068309;28;20040;-77
2022/05/17 09:42:31;;;;;;;2.38;1.20;;;;;;;;;;5051489;28;20029;-77
2022/05/17 09:45:01;;;;;;;2.88;1.40;;;;;;;;;;5051412;28;20028;-77
2022/05/17 09:47:42;;;;;;;5.75;1.40;;;;;;;;;;5067846;28;20033;-77
2022/05/17 09:53:14;;;;;;;2.13;1.20;;;;;;;;;;5051989;28;20086;-79
2022/05/17 09:55:43;;;;;;;1.98;1.30;;;;;;;;;;5052788;28;20413;-78
2022/05/17 09:58:29;;;;;;;3.20;1.30;;;;;;;;;;5052778;28;20037;-79
2022/05/17 10:00:54;;;;;;;2.45;1.50;;;;;;;;;;5067701;28;20044;-79
2022/05/17 10:03:26;;;;;;;2.80;1.35;;;;;;;;;;5068076;28;20391;-78
2022/05/17 10:06:07;;;;;;;4.15;1.20;;;;;;;;;;5052283;28;20116;-79
2022/05/17 10:09:02;;;;;;;1.95;1.10;;;;;;;;;;5034702;28;20135;-79
2022/05/17 10:11:42;;;;;;;5.50;1.40;;;;;;;;;;5068104;28;20518;-79
2022/05/17 10:14:34;;;;;;;4.43;1.20;;;;;;;;;;5051286;28;20206;-79
2022/05/17 10:17:04;;;;;;;2.28;0.95;;;;;;;;;;5050928;28;20033;-79
2022/05/17 10:19:41;;;;;;;2.70;1.25;;;;;;;;;;5050891;28;20048;-79
2022/05/17 10:22:31;;;;;;;2.42;1.30;;;;;;;;;;5067846;28;20075;-80
2022/05/17 10:25:09;;;;;;;3.40;1.30;;;;;;;;;;5051056;28;20428;-78
2022/05/17 10:27:37;;;;;;;2.30;1.27;;;;;;;;;;5050945;28;20071;-78
2022/05/17 10:30:50;;;;;;;2.70;1.35;;;;;;;;;;5050745;28;20389;-78
2022/05/17 10:33:54;;;;;;;2.67;1.13;;;;;;;;;;5032935;28;20438;-79
2022/05/17 10:36:26;;;;;;;3.80;1.33;;;;;;;;;;5016906;28;20043;-78
2022/05/17 10:39:15;;;;;;;1.30;1.02;;;;;;;;;;5067775;28;20025;-79
2022/05/17 10:41:41;;;;;;;3.45;1.60;;;;;;;;;;5050665;28;20025;-80
2022/05/17 10:44:06;;;;;;;2.53;1.50;;;;;;;;;;5033733;28;20029;-79
2022/05/17 10:46:37;;;;;;;2.55;0.98;;;;;;;;;;5067381;28;20025;-78
2022/05/17 10:49:27;;;;;;;3.75;1.20;;;;;;;;;;5051080;28;20039;-79
2022/05/17 10:52:13;;;;;;;2.92;1.23;;;;;;;;;;5035315;28;20020;-78
2022/05/17 10:54:57;;;;;;;3.78;1.50;;;;;;;;;;5050657;28;20036;-78
2022/05/17 10:57:47;;;;;;;3.72;1.20;;;;;;;;;;5067552;28;20029;-78
2022/05/17 11:00:18;;;;;;;3.75;1.50;;;;;;;;;;5067328;28;20116;-78
2022/05/17 11:02:59;;;;;;;4.68;1.63;;;;;;;;;;5067505;28;20040;-78
2022/05/17 11:05:27;;;;;;;3.42;1.30;;;;;;;;;;5051870;28;20021;-78
2022/05/17 11:08:11;;;;;;;5.75;1.95;;;;;;;;;;5050801;28;20052;-78
2022/05/17 11:10:53;;;;;;;2.38;1.23;;;;;;;;;;5051970;28;20124;-80
2022/05/17 11:13:34;;;;;;;2.25;1.38;;;;;;;;;;5051805;28;20033;-80
2022/05/17 11:16:12;;;;;;;2.83;1.20;;;;;;;;;;5051973;28;20032;-79
2022/05/17 11:19:04;;;;;;;1.75;1.40;;;;;;;;;;5052622;28;20508;-78
2022/05/17 11:21:55;;;;;;;2.92;1.30;;;;;;;;;;5054359;28;20032;-81
2022/05/17 11:24:48;;;;;;;8.45;1.75;;;;;;;;;;5054253;28;20025;-79
2022/05/17 11:27:51;;;;;;;6.00;2.00;;;;;;;;;;5054219;28;20029;-79
2022/05/17 11:30:16;;;;;;;7.85;2.15;;;;;;;;;;5055445;28;20104;-80
2022/05/17 11:33:20;;;;;;;6.68;2.08;;;;;;;;;;5055487;28;20056;-79
2022/05/17 11:35:52;;;;;;;8.43;2.65;;;;;;;;;;5053909;28;20124;-81
2022/05/17 11:38:44;;;;;;;7.88;2.60;;;;;;;;;;5054512;28;20128;-79
2022/05/17 11:41:38;;;;;;;6.93;2.42;;;;;;;;;;5036973;28;20036;-78
2022/05/17 11:44:05;;;;;;;7.32;1.95;;;;;;;;;;5055006;28;20047;-78
2022/05/17 11:46:31;;;;;;;9.95;1.98;;;;;;;;;;5055077;28;20104;-79
2022/05/17 11:49:19;;;;;;;6.32;1.92;;;;;;;;;;5053885;28;20108;-79
2022/05/17 11:51:57;;;;;;;8.25;1.98;;;;;;;;;;5049763;28;20059;-80
2022/05/17 11:54:45;;;;;;;5.65;1.70;;;;;;;;;;5054077;28;20033;-80
2022/05/17 11:57:12;;;;;;;3.30;1.42;;;;;;;;;;5070364;28;20083;-79
2022/05/17 11:59:43;;;;;;;3.40;1.40;;;;;;;;;;5070580;28;20487;-79
2022/05/17 12:02:12;;;;;;;5.00;1.42;;;;;;;;;;5053700;28;20345;-79
2022/05/17 12:04:46;;;;;;;5.55;1.33;;;;;;;;;;5053573;28;20023;-80
2022/05/17 12:07:27;;;;;;;3.58;1.50;;;;;;;;;;5070333;28;20031;-80
2022/05/17 12:10:16;;;;;;;6.38;1.73;;;;;;;;;;5070465;28;20020;-80
2022/05/17 12:12:56;;;;;;;2.60;1.20;;;;;;;;;;5053775;28;20036;-79
2022/05/17 12:15:36;;;;;;;6.95;1.42;;;;;;;;;;5054115;28;20021;-79
2022/05/17 12:18:04;;;;;;;5.00;1.75;;;;;;;;;;5053376;28;20070;-80
2022/05/17 12:20:40;;;;;;;5.00;1.58;;;;;;;;;;5053458;28;20040;-79
2022/05/17 12:23:17;;;;;;;2.92;1.42;;;;;;;;;;5070078;28;20049;-80
2022/05/17 12:26:12;;;;;;;3.70;1.33;;;;;;;;;;5069886;28;20021;-80
2022/05/17 12:28:40;;;;;;;4.07;1.30;;;;;;;;;;5051476;28;20040;-80
2022/05/17 12:31:09;;;;;;;5.57;1.10;;;;;;;;;;5069335;28;20112;-80
2022/05/17 12:33:37;;;;;;;3.80;1.30;;;;;;;;;;5053190;28;20052;-79
2022/05/17 12:36:40;;;;;;;7.43;1.45;;;;;;;;;;5053488;28;20464;-78
2022/05/17 12:44:47;;;;;;;2.78;1.13;;;;;;;;;;5053375;28;20087;-79
2022/05/17 12:47:20;;;;;;;4.10;1.50;;;;;;;;;;5053152;28;20095;-79
2022/05/17 12:49:52;;;;;;;2.03;1.20;;;;;;;;;;5036527;28;20091;-79
2022/05/17 12:52:33;;;;;;;1.63;1.25;;;;;;;;;;5053041;28;20544;-79
2022/05/17 12:55:03;;;;;;;3.72;1.17;;;;;;;;;;5069376;28;20061;-79
2022/05/17 12:57:33;;;;;;;3.53;1.40;;;;;;;;;;5069631;28;20033;-79
2022/05/17 13:00:14;;;;;;;2.45;1.52;;;;;;;;;;5054389;28;20049;-79
2022/05/17 13:02:48;;;;;;;6.53;1.20;;;;;;;;;;5053822;28;20060;-80
2022/05/17 13:05:33;;;;;;;3.85;1.60;;;;;;;;;;5052693;28;20021;-80
2022/05/17 13:08:10;;;;;;;2.10;1.38;;;;;;;;;;5052572;28;20108;-80
2022/05/17 13:10:37;;;;;;;3.42;1.05;;;;;;;;;;5053961;28;20028;-79
2022/05/17 13:13:36;;;;;;;2.60;1.17;;;;;;;;;;5052509;28;20104;-79
2022/05/17 13:16:07;;;;;;;3.53;1.20;;;;;;;;;;5004020;28;20047;-79
2022/05/17 13:18:42;;;;;;;5.47;1.70;;;;;;;;;;5052775;28;20078;-79
2022/05/17 13:21:15;;;;;;;4.25;1.30;;;;;;;;;;5052263;28;20075;-78
2022/05/17 13:23:41;;;;;;;;;;;;;;;;;;5036078;28;20032;-79
2022/05/17 13:26:06;;;;;;;2.00;0.93;;;;;;;;;;5052400;28;19916;-81
2022/05/17 13:28:33;;;;;;;5.15;1.20;;;;;;;;;;5019068;28;20442;-80
2022/05/17 13:31:14;;;;;;;1.80;1.27;;;;;;;;;;5035570;28;20060;-79
2022/05/17 13:33:42;;;;;;;3.63;1.40;;;;;;;;;;5035463;28;20486;-79
2022/05/17 13:36:14;;;;;;;8.70;1.40;;;;;;;;;;5052198;28;20090;-79
2022/05/17 13:38:41;;;;;;;2.80;1.52;;;;;;;;;;5052262;28;20071;-79
2022/05/17 13:41:29;;;;;;;2.25;1.42;;;;;;;;;;5051776;28;20031;-78
2022/05/17 13:43:57;;;;;;;4.20;1.38;;;;;;;;;;5053815;28;20052;-80
2022/05/17 13:46:25;;;;;;;3.50;1.42;;;;;;;;;;5035879;28;20051;-81
2022/05/17 13:48:58;;;;;;;4.22;1.70;;;;;;;;;;5035417;28;20039;-78
2022/05/17 13:51:42;;;;;;;2.63;1.38;;;;;;;;;;5052256;28;20092;-78
2022/05/17 13:54:13;;;;;;;3.17;1.17;;;;;;;;;;5018609;28;20029;-79
2022/05/17 13:56:43;;;;;;;1.88;1.20;;;;;;;;;;5052104;28;20127;-78
2022/05/17 13:59:11;;;;;;;2.40;1.30;;;;;;;;;;5054684;28;21394;-81
2022/05/17 14:01:39;;;;;;;4.05;1.48;;;;;;;;;;5055074;28;20028;-80
2022/05/17 14:04:36;;;;;;;4.53;1.45;;;;;;;;;;5072877;28;20483;-80
2022/05/17 14:07:22;;;;;;;2.38;1.30;;;;;;;;;;5055339;28;20482;-79
2022/05/17 14:13:21;;;;;;;1.77;1.15;;;;;;;;;;5069051;28;20039;-79
2022/05/17 14:15:46;;;;;;;2.17;1.23;;;;;;;;;;5054925;28;20401;-79
2022/05/17 14:18:19;;;;;;;3.28;1.27;;;;;;;;;;5071699;28;20025;-79
2022/05/17 14:20:44;;;;;;;1.40;1.10;;;;;;;;;;5054783;28;20482;-81
2022/05/17 14:23:09;;;;;;;2.60;1.30;;;;;;;;;;5071367;28;20036;-81
2022/05/17 14:25:36;;;;;;;2.67;1.35;;;;;;;;;;5070997;28;20044;-80
2022/05/17 14:28:02;;;;;;;3.17;1.00;;;;;;;;;;5071408;28;20200;-81
2022/05/17 14:30:27;;;;;;;1.88;1.05;;;;;;;;;;5054481;28;20115;-79
2022/05/17 14:32:53;;;;;;;1.23;1.10;;;;;;;;;;5054431;28;20032;-79
2022/05/17 14:35:22;;;;;;;2.20;1.17;;;;;;;;;;5054498;28;20078;-79
2022/05/17 14:37:49;;;;;;;4.38;1.10;;;;;;;;;;5054694;28;20017;-80
2022/05/17 14:40:15;;;;;;;2.33;1.42;;;;;;;;;;5037702;28;20028;-80
2022/05/17 14:42:41;;;;;;;3.63;1.10;;;;;;;;;;5054224;28;20063;-80
2022/05/17 14:45:07;;;;;;;1.85;1.20;;;;;;;;;;5071037;28;20147;-80
2022/05/17 14:47:32;;;;;;;3.88;1.45;;;;;;;;;;5054381;28;20478;-79
2022/05/17 14:49:59;;;;;;;4.72;1.75;;;;;;;;;;5070867;28;20036;-80
2022/05/17 14:52:25;;;;;;;2.17;1.17;;;;;;;;;;5053716;28;20033;-80
2022/05/17 14:54:51;;;;;;;6.18;1.85;;;;;;;;;;5072073;28;20390;-84
2022/05/17 14:57:17;;;;;;;2.00;1.13;;;;;;;;;;5070834;28;20047;-81
2022/05/17 14:59:42;;;;;;;2.25;1.50;;;;;;;;;;5053965;28;20055;-81
2022/05/17 15:02:12;;;;;;;2.40;1.25;;;;;;;;;;5072113;28;20036;-81
2022/05/17 15:04:40;;;;;;;5.43;1.63;;;;;;;;;;5054020;28;20020;-82
2022/05/17 15:07:21;;;;;;;1.67;1.02;;;;;;;;;;5070712;28;20474;-83
2022/05/17 15:09:51;;;;;;;3.15;1.20;;;;;;;;;;5071218;28;20142;-82
2022/05/17 15:12:17;;;;;;;2.25;1.27;;;;;;;;;;5070571;28;20120;-80
2022/05/17 15:14:43;;;;;;;3.20;1.48;;;;;;;;;;5037290;28;20206;-82
2022/05/17 15:17:13;;;;;;;2.88;1.55;;;;;;;;;;5070953;28;20036;-79
2022/05/17 15:19:41;;;;;;;7.43;1.50;;;;;;;;;;5072042;28;20218;-82
2022/05/17 15:22:15;;;;;;;4.97;1.73;;;;;;;;;;5037422;28;20028;-82
2022/05/17 15:24:42;;;;;;;4.75;1.80;;;;;;;;;;5053696;28;20043;-81